MET: Información y Pronóstico Aeronáutico

///////////////////////////////////////////////////////////////////////////////////////////////////////////////////////////////////////////////////////////////////////////////////////////////////////////////////////////////////////////////

Member for

3 meses 1 semana
Enviado por meteorologia el Jue, 23/11/2017 - 11:39
19-10

19 DE OCTUBRE 2018

INFORMACION METEOROLOGICA AERONAUTICA (METAR) 18:00 UTC

Aeropuerto AEROPARQUE J. NEWBERY

19 - 18:00 METAR SABE 191800Z 10018KT CAVOK 20/13 Q1024 NOSIG =

Aeropuerto BAHIA BLANCA

19 - 18:00 METAR SAZB 191800Z 07013KT 9999 FEW032 BKN200 16/07 Q1028 =

Aeropuerto BARILOCHE

19 - 18:00 METAR SAZS 191800Z 05010KT 5000 SHRA SCT019 BKN026 BKN038 06/03 Q1023 =

Aeropuerto CATAMARCA

19 - 18:00 METAR SANC 191800Z 02015KT 9999 VCRA SCT040 BKN045 24/17 Q1015 =

Aeropuerto CHAPELCO

19 - 18:00 METAR SAZY 191800Z 11014KT 9999 OVC018 06/03 Q1020 =

Aeropuerto COMODORO RIVADAVIA

19 - 18:00 METAR SAVC 191800Z 07015KT CAVOK 11/02 Q1028 =

Aeropuerto CORDOBA

19 - 18:00 METAR SACO 191800Z 14005KT 6000 BKN008 BKN015 17/15 Q1021 TEMPO 2500 DZ BR =

Aeropuerto CORRIENTES

19 - 18:00 METAR SARC 191800Z 12011KT 9999 OVC020 24/20 Q1016 =

Aeropuerto EL CALAFATE

19 - 18:00 METAR SAWC 191800Z 27008KT CAVOK 12/M03 Q1023 =

Aeropuerto EL PALOMAR

19 - 18:00 METAR SADP 191800Z 11008KT 9999 FEW040 21/12 Q1024 =

Aeropuerto ESQUEL

19 - 18:00 METAR SAVE 191800Z 05008KT 8000 -DZ BKN008 07/03 Q1022 =

Aeropuerto EZEIZA

19 - 18:00 METAR SAEZ 191700Z 13010KT 100V160 9999 FEW040 22/13 Q1024 NOSIG =

Aeropuerto FORMOSA

19 - 18:00 METAR SARF 191800Z 11010KT 9999 SCT030 FEW040TCU OVC100 30/22 Q1013 =

Aeropuerto IGUAZU/CATARATAS

19 - 18:00 METAR SARI 191800Z 09004KT 9999 SCT030 SCT100 27/21 Q1013 =

Aeropuerto JUJUY

19 - 18:00 METAR SASJ 191800Z 36007KT 9999 VCSH SCT010 SCT030 OVC045 23/18 Q1018 =

Aeropuerto LA RIOJA

19 - 18:00 METAR SANL 191800Z 00000KT 3000 DZ OVC025 18/18 Q1017 =

Aeropuerto MALARGUE

19 - 18:00 METAR SAMM 191800Z 36003KT 9999 BKN010 OVC025 10/09 Q1021 =

Aeropuerto MAR DEL PLATA

19 - 18:00 METAR SAZM 191800Z 14012KT 9999 BKN020 BKN028 12/07 Q1029 =

Aeropuerto MENDOZA

19 - 18:00 METAR SAME 191700Z 14003KT 9999 SCT040 18/12Q1018 =

Aeropuerto MORON

19 - 18:00 METAR SADM 191800Z 11007KT 9999 FEW030 22/11 Q1023 =

Aeropuerto NEUQUEN

19 - 18:00 METAR SAZN 191800Z 14009KT 5000 -RA SCT010 SCT025 BKN050 08/07 Q1026 =

Aeropuerto PARANA

19 - 18:00 METAR SAAP 191800Z 09011KT CAVOK 25/13 Q1020 =

Aeropuerto POSADAS

19 - 17:00 METAR SARP 191700Z 14011KT 9999 SCT030 28/19 Q1015 =

Aeropuerto PUERTO MADRYN

19 - 18:00 METAR SAVY 191800Z 07012KT 9999 SCT030 BKN100 09/04 Q1030 =

Aeropuerto RECONQUISTA

19 - 18:00 METAR SATR 191800Z 11012KT 9999 FEW030 SCT100 28/18 Q1017 =

Aeropuerto RESISTENCIA

19 - 18:00 METAR SARE 191800Z 11010KT 9999 OVC021 25/20 Q1015 =

Aeropuerto RIO CUARTO

19 - 18:00 METAR SAOC 191800Z 02016KT 9999 OVC012 16/12 Q1021 RERA =

Aeropuerto RIO GALLEGOS

19 - 18:00 METAR SAWG 191800Z 01012KT CAVOK 17/M02 Q1023 =

Aeropuerto RIO GRANDE

19 - 18:00 METAR SAWE 191800Z 05008KT CAVOK 09/05 Q1024 =

Aeropuerto ROSARIO

19 - 18:00 METAR SAAR 191800Z 11012KT CAVOK 24/14 Q1021 =

Aeropuerto SALTA

19 - 18:00 METAR SASA 191800Z 05008KT 9999 VCSH SCT010 BKN020 22/17 Q1019 =

Aeropuerto SAN FERNANDO

19 - 18:00 METAR SADF 191800Z 09014KT 9999 FEW030 19/11 Q1024 =

Aeropuerto SAN JUAN

19 - 18:00 METAR SANU 191800Z 18005KT 9999 SCT040 BKN060 21/10 Q1017 =

Aeropuerto SAN LUIS

19 - 18:00 METAR SAOU 191800Z 20003KT 9999 BKN035 SCT040 24/13 Q1017 =

Aeropuerto SAN RAFAEL

19 - 18:00 METAR SAMR 191800Z 14008KT 0500 FGDZ OVC004 09/09 Q1021 RMK WX AD CONT / SIN CAMBIOS SIGNIF =

Aeropuerto SANTA ROSA

19 - 18:00 METAR SAZR 191800Z 07011KT 8000 BKN050 FEW060CB OVC100 12/09 Q1025 RMK CB OBS TO S =

Aeropuerto SANTIAGO DEL ESTERO

19 - 18:00 METAR SANE 191800Z 18008KT 9999 BKN004 BKN015 22/20 Q1017 =

Aeropuerto SAUCE VIEJO

19 - 18:00 METAR SAAV 191800Z 14009KT 080V160 CAVOK 26/15 Q1020 =

Aeropuerto TANDIL

19 - 18:00 METAR SAZT 191800Z 09012KT 9999 FEW018 17/06 Q1026 =

Aeropuerto TERMAS DE RIO HONDO

19 - 18:00 METAR SANR 191800Z 09012KT 9999 OVC020 22/20 Q1017 =

Aeropuerto TRELEW

19 - 18:00 METAR SAVT 191800Z 05016KT CAVOK 11/M01 Q1031 =

Aeropuerto TUCUMAN

19 - 18:00 METAR SANT 191800Z 14012KT 9000 SCT012 SCT017 24/21 Q1017 RERA =

Aeropuerto USHUAIA

19 - 18:00 METAR SAWH 191800Z 00000KT CAVOK 10/01 Q1023 =

Aeropuerto VIEDMA

19 - 18:00 METAR SAVV 191800Z 09015KT 9999 FEW035 BKN200 12/03 Q1030 =

Aeropuerto VILLA REYNOLDS

19 - 18:00 METAR SAOR 191800Z 05018KT 9999 SCT015 SCT100 18/15 Q1019 =

 PRONOSTICO DE AERODROMO (TAF) 17:00 UTC

Estación AEROPARQUE J. NEWBERY

19 - 17:00 TAF SABE 191700Z 1918/2018 10020KT 9999 FEW030 TX19/2018Z TN15/2009Z BECMG 2003/2005 10015KT BKN015 BECMG 2006/2009 SCT020 BKN035 =

Estación BAHIA BLANCA

19 - 17:00 TAF SAZB 191700Z 1918/2018 09015KT 9999 FEW030 TX19/2018Z TN08/2008Z BECMG 1920/1922 14015KT BECMG 2003/2005 09010KT 5000 SHRA BKN030 FEW050TCU BECMG 2009/2011 9999 BKN040 =

Estación BARILOCHE

19 - 17:00 TAF SAZS 191700Z 1918/2018 14010KT 8000 -RA SCT020 BKN025 OVC035 TX11/2018Z TN03/2010Z BECMG 1923/2001 VRB03KT BECMG 2011/2013 29010KT 9999 NSW SCT030 =

Estación CATAMARCA

19 - 17:00 TAF SANC 191700Z 1918/2018 05015KT 9999 SCT030 TX19/2018Z TN18/202Z FEW045TCU BECMG 1921/2000 05005KT 9999 SCT035 =

Estación CHAPELCO

19 - 17:00 TAF SAZY 191700Z 1918/2018 11015KT 9999 OVC018 TX12/2018Z TN02/2010Z BECMG 1923/2001 10010KT 8000 RADZ OVC015 BECMG 2006/2008 09005KT BECMG 2015/2017 27005KT 9999 SCT040 =

Estación COMODORO RIVADAVIA

19 - 17:00 TAF SAVC 191700Z 1918/2018 05015KT 9999 FEW030 TX14/1919Z TN06/2012Z PROB30 TEMPO 1918/2002 SCT020 SCT030 BECMG 2003/2005 34018KT =

Estación CORDOBA

19 - 17:00 TAF SACO 191700Z 1918/2018 20005KT 3000 BR BKN008 TX20/1919Z TN14/2010Z SCT015 BKN040 BECMG 2021/2000 14005KT 9999 OVC040 BECMG 2003/2006 16005KT 3000 DZ SCT005 OVC030 =

Estación CORRIENTES

19 - 17:00 TAF SARC 191700Z 1918/2018 14010KT 9999 OVC024 TX30/2018Z TN20/2009Z BECMG 2014/2016 SCT020 FEW040TCU =

Estación EL CALAFATE

19 - 17:00 TAF SAWC 191700Z 1918/2018 VRB03KT CAVOK TX14/1919Z TN01/2012Z BECMG 1917/1919 02010KT =

Estación EL PALOMAR

19 - 17:00 TAF SADP 191700Z 1918/2018 11010KT 9999 FEW030 TX21/1918Z TN12/2009Z BECMG 1919/1921 CAVOK BECMG 2002/2004 15010KT PROB30 TEMPO 2010/2012 8000 -DZ OVC015 BECMG 2014/2016 9999 BKN030 =

Estación ESQUEL

19 - 17:00 TAF SAVE 191700Z 1918/2018 05012KT 8000 -DZ BKN009 SCT030 TX15/1920Z TN02/2012Z BECMG 2001/2003 VRB05KT 9999 NSW BKN020 BECMG 2006/2008 36008KT -RA SCT020 SCT050 =

Estación EZEIZA

19 - 17:00 TAF SAEZ 191700Z 1918/2018 14010KT 9999 FEW040 TX21/1918Z TN12/2009Z BECMG 1919/1921 CAVOK PROB30 TEMPO 2010/2012 8000 -DZ OVC015 BECMG 2014/2016 9999 BKN030 =

Estación FORMOSA

19 - 17:00 TAF SARF 191700Z 1918/2018 14010KT 9999 OVC025 TX32/2018Z TN22/2009Z BECMG 2014/2016 SCT020 FEW040TCU =

Estación IGUAZU/CATARATAS

19 - 17:00 TAF SARI 191700Z 1918/2018 11005KT 9999 SCT025 FEW045TCU BKN090 TX31/2018Z TN18/2009Z PROB40 TEMPO 1919/1921 8000 SHRA BKN015 FEW045TCU BECMG 2000/2002 SCT020 SCT090 BECMG 2014/2016 SCT020 FEW040TCU =

Estación JUJUY

19 - 17:00 TAF SASJ 191700Z 1918/2018 18010KT 5000 RADZ SCT010 BKN020 TX27/1918Z TN16/2010Z BECMG 2005/2008 27005KT 8000 BKN040 BECMG 2010/20113 09005KT 9999 SCT025 FEW035 =

Estación LA RIOJA

19 - 17:00 TAF SANL 191700Z 1918/2018 16005KT 9999 SCT020 BKN040 TX26/2018Z TN17/2010Z FEW045TCU =

Estación MAR DEL PLATA

19 - 17:00 TAF SAZM 191700Z 1918/2018 14015KT 9999 SCT020 BKN030 TX16/2018Z TN08/2010Z BECMG 2000/2003 09010KT 8000 SCT015 BKN020 BECMG 2015/2018 05015KT 9999 FEW025 BKN060 =

Estación MENDOZA

19 - 17:00 TAF SAME 191700Z 1918/2018 16010KT 9999 OVC030 SCT040 TX24/1920Z TN12/2010Z BECMG 2004/2006 18005KT 6000 DZRA OVC020 SCT030 =

Estación NEUQUEN

19 - 17:00 TAF SAZN 191700Z 1918/2018 14010KT 6000 RA SCT015 SCT030 BKN050 TX13/2018Z TN07/2010Z TEMPO 1918/1923 2000 RA BKN015 OVC030 =

Estación PARANA

19 - 17:00 TAF SAAP 191700Z 1918/2018 09010KT CAVOK TX25/1919Z TN14/2009Z BECMG 2002/2004 9999 SCT025 BECMG 2010/2012 09015KT =

Estación POSADAS

19 - 17:00 TAF SARP 191700Z 1918/2018 14010KT 9999 SCT025 SCT090 TX32/2018Z TN20/2009Z BECMG 2014/2016 SCT020 FEW040TCU =

Estación RESISTENCIA

19 - 17:00 TAF SARE 191700Z 1918/2018 14010KT 9999 OVC024 TX30/2018Z TN20/2009Z BECMG 2014/2016 SCT020 FEW040TCU =

Estación RIO CUARTO

19 - 17:00 TAF SAOC 191700Z 1918/2018 09015KT 9999 BKN020 TX18/2018Z TN15/2010Z BECMG 2009/2012 02015KT 5000 RADZ SCT010 BKN035 OVC045 =

Estación RIO GALLEGOS

19 - 17:00 TAF SAWG 191700Z 1918/2018 02012KT CAVOK TX17/1920Z TN03/2012Z TEMPO 1921/2003 02023KT =

Estación RIO GRANDE

19 - 17:00 TAF SAWE 191700Z 1918/2018 07008KT 9999 FEW030 TX12/1919Z TN01/2012Z BECMG 1919/1921 30012KT BECMG 2005/2007 VRB03KT PROB30 TEMPO 2007/2009 1000 FG BECMG 2016/2018 32010KT CAVOK =

Estación ROSARIO

19 - 17:00 TAF SAAR 191700Z 1918/2018 09015KT CAVOK TX25/1919Z TN11/2009Z BECMG 1918/1920 SCT035 PROB30 TEMPO 1920/1923 7000 SHRA SCT030 FEW035TCU BECMG 2008/2011 BKN015 BECMG 2012/2015 BKN035 =

Estación SALTA

19 - 17:00 TAF SASA 191700Z 1918/2018 07010KT 4000 RADZ SCT010 BKN030 TX23/1918Z TN14/2010Z BECMG 1923/2002 23005KT 9999 FEW015 BKN030 =

Estación SAN FERNANDO

19 - 17:00 TAF SADF 191700Z 1918/2018 09015KT 9999 FEW030 TX20/1918Z TN14/2009Z TEMPO 2001/2009 07010KT BKN015 =

Estación SAN JUAN

19 - 17:00 TAF SANU 191700Z 1918/2018 18005KT 9999 VCDZ SCT030 SCT070 TX26/1920Z TN12/2010Z =

Estación SAN LUIS

19 - 17:00 TAF SAOU 191700Z 1918/2018 05005KT 9999 SCT040 SCT070 TX23/1919Z TN12/2009Z BECMG 1922/1924 05010KT 3000 TSRA SCT010 SCT020 FEW040CB =

Estación SAN RAFAEL

19 - 17:00 TAF SAMR 191700Z 1918/2018 14005KT 1500 DZ SCT007 SCT020 OVC040 TX16/1920Z TN08/1910Z BECMG 1922/1924 14010KT 6000 DZRA SCT020 BKN040 =

Estación SANTA ROSA

19 - 17:00 TAF SAZR 191700Z 1918/2018 07010KT 8000 RA SCT045 FEW060CB TX14/1918Z TN10/2009Z BECMG 2007/2009 06015KT BECMG 2015/2017 6000 TSRA BKN030 FEW040CB =

Estación SANTIAGO DEL ESTERO

19 - 17:00 TAF SANE 191700Z 1918/2018 18010KT 5000 RADZ BKN020 FEW040CB TX28/2018Z TN20/2010Z BECMG 1915/1918 16010KT 9999 SCT030TCU BECMG 2003/2006 16005KT 5000 RADZ SCT007 OVC035 =

Estación SAUCE VIEJO

19 - 17:00 TAF SAAV 191700Z 1918/2018 14010KT CAVOK TX26/1919Z TN14/2009Z BECMG 2002/2004 9999 SCT025 BECMG 2010/2012 09015KT =

Estación TERMAS DE RIO HONDO

19 - 17:00 TAF SANR 191700Z 1918/2018 11015KT 5000 RADZ SCT006 BKN020 TX25/2018Z TN19/2010Z BECMG 1915/1918 16005KT 8000 SCT015 BKN030 =

Estación TRELEW

19 - 17:00 TAF SAVT 191700Z 1918/2018 05015KT 9999 -SHRA BKN020 SCT070 TX15/1919Z TN06/2012Z BECMG 2004/2006 02020KT =

Estación TUCUMAN

19 - 17:00 TAF SANT 191700Z 1918/2018 20010KT 5000 DZBR SCT004 BKN007 TX27/2018Z TN16/2010Z OVC040 BECMG 2000/2003 VRB03KT 9999 SCT015 BECMG 2008/2011 VRB03KT 7000 DZBR SCT008 BKN025 =

Estación USHUAIA

19 - 17:00 TAF SAWH 191700Z 1918/2018 VRB05KT CAVOK 17/1919Z TN02/1912Z =

Estación VIEDMA

19 - 17:00 TAF SAVV 191700Z 1918/2018 07015KT 9999 BKN030 TX15/1919Z TN07/2012Z PROB30 TEMPO 1920/2012 05020KT -SHRA =